Time;durP1;ratioP1;P1;durP2;ratioP2;P2;SDS_P1;SDS_P2;PMS_P1;PMS_P2;Temp;Humidity;BMP_temperature;BMP_pressure;BME280_temperature;BME280_humidity;BME280_pressure;Samples;Min_cycle;Max_cycle;Signal;HPM_P1;HPM_P2
2022/07/02 00:01:27;;;;;;;5.17;1.90;;;;;;;;;;6250956;22;20187;-85
2022/07/02 00:03:57;;;;;;;5.20;1.93;;;;;;;;;;6277837;22;20193;-86
2022/07/02 00:06:27;;;;;;;9.67;2.17;;;;;;;;;;6250400;22;20230;-86
2022/07/02 00:08:56;;;;;;;3.73;1.90;;;;;;;;;;6253232;22;20175;-85
2022/07/02 00:11:25;;;;;;;4.80;1.90;;;;;;;;;;6253212;22;20179;-86
2022/07/02 00:13:54;;;;;;;16.30;2.97;;;;;;;;;;6252999;22;20202;-86
2022/07/02 00:16:22;;;;;;;3.30;2.43;;;;;;;;;;6253086;22;20182;-86
2022/07/02 00:18:52;;;;;;;9.63;2.13;;;;;;;;;;6252696;22;20191;-85
2022/07/02 00:21:20;;;;;;;2.73;1.40;;;;;;;;;;6252870;22;20184;-86
2022/07/02 00:23:49;;;;;;;5.47;2.23;;;;;;;;;;6252770;22;20172;-85
2022/07/02 00:26:18;;;;;;;3.87;1.50;;;;;;;;;;6252553;22;20207;-86
2022/07/02 00:28:48;;;;;;;10.67;2.07;;;;;;;;;;6252121;22;20183;-86
2022/07/02 00:31:16;;;;;;;4.37;2.13;;;;;;;;;;6252426;22;20212;-86
2022/07/02 00:33:46;;;;;;;7.07;2.17;;;;;;;;;;6252117;22;20177;-86
2022/07/02 00:36:22;;;;;;;4.60;1.33;;;;;;;;;;6252620;22;20193;-86
2022/07/02 00:38:51;;;;;;;7.37;2.60;;;;;;;;;;6279283;22;20222;-86
2022/07/02 00:41:20;;;;;;;4.33;1.83;;;;;;;;;;6253401;22;20231;-86
2022/07/02 00:43:48;;;;;;;6.40;2.50;;;;;;;;;;6252052;22;20270;-86
2022/07/02 00:46:17;;;;;;;4.63;2.60;;;;;;;;;;6251965;22;20180;-86
2022/07/02 00:48:46;;;;;;;3.63;2.40;;;;;;;;;;6252446;22;20267;-85
2022/07/02 00:51:14;;;;;;;4.83;2.13;;;;;;;;;;6279733;22;20171;-86
2022/07/02 00:53:44;;;;;;;4.20;2.40;;;;;;;;;;6252800;22;20190;-86
2022/07/02 00:56:12;;;;;;;3.43;1.60;;;;;;;;;;6252741;22;20176;-86
2022/07/02 00:58:41;;;;;;;3.00;1.87;;;;;;;;;;6252209;22;20179;-85
2022/07/02 01:01:09;;;;;;;4.83;2.27;;;;;;;;;;6252602;22;20199;-86
2022/07/02 01:03:39;;;;;;;6.37;2.13;;;;;;;;;;6252606;22;20203;-86
2022/07/02 01:06:07;;;;;;;6.07;2.33;;;;;;;;;;6279650;22;20172;-86
2022/07/02 01:11:24;;;;;;;2.37;1.23;;;;;;;;;;6278519;22;20182;-85
2022/07/02 01:13:53;;;;;;;2.97;2.03;;;;;;;;;;6278930;22;20187;-85
2022/07/02 01:16:21;;;;;;;9.37;2.67;;;;;;;;;;6252117;22;20179;-86
2022/07/02 01:18:49;;;;;;;5.13;2.60;;;;;;;;;;6277181;22;20185;-86
2022/07/02 01:21:18;;;;;;;0.90;0.90;;;;;;;;;;6252083;22;20245;-86
2022/07/02 01:23:48;;;;;;;7.97;3.17;;;;;;;;;;6252160;22;20179;-86
2022/07/02 01:26:16;;;;;;;5.03;2.90;;;;;;;;;;6252064;22;20214;-86
2022/07/02 01:28:45;;;;;;;5.07;2.83;;;;;;;;;;6277411;22;20182;-86
2022/07/02 01:31:13;;;;;;;4.23;2.27;;;;;;;;;;6226160;23;20207;-86
2022/07/02 01:33:42;;;;;;;3.70;2.00;;;;;;;;;;6123567;23;20221;-86
2022/07/02 01:36:10;;;;;;;7.33;2.40;;;;;;;;;;6226453;23;20184;-86
2022/07/02 01:38:39;;;;;;;2.63;2.00;;;;;;;;;;6226029;22;20188;-86
2022/07/02 01:43:55;;;;;;;8.10;2.27;;;;;;;;;;6123419;23;20181;-86
2022/07/02 01:46:23;;;;;;;6.53;2.17;;;;;;;;;;6226387;23;20179;-86
2022/07/02 01:48:52;;;;;;;3.57;1.90;;;;;;;;;;6225807;23;20206;-86
2022/07/02 01:51:20;;;;;;;4.23;2.13;;;;;;;;;;6251929;22;20180;-86
2022/07/02 01:53:49;;;;;;;6.57;3.60;;;;;;;;;;6226037;23;20210;-86
2022/07/02 01:56:19;;;;;;;2.17;1.97;;;;;;;;;;6225687;23;20183;-86
2022/07/02 01:58:47;;;;;;;4.07;2.30;;;;;;;;;;6226286;23;20179;-86
2022/07/02 02:01:15;;;;;;;8.43;2.27;;;;;;;;;;6226389;23;20237;-86
2022/07/02 02:03:44;;;;;;;6.43;3.77;;;;;;;;;;6251203;22;20200;-86
2022/07/02 02:06:12;;;;;;;2.37;1.90;;;;;;;;;;6225914;23;20198;-86
2022/07/02 02:08:41;;;;;;;5.87;2.30;;;;;;;;;;6123205;23;20181;-85
2022/07/02 02:11:09;;;;;;;7.97;2.40;;;;;;;;;;6123548;23;20175;-86
2022/07/02 02:13:39;;;;;;;3.27;1.50;;;;;;;;;;6225566;23;20180;-85
2022/07/02 02:16:07;;;;;;;5.17;2.63;;;;;;;;;;6123524;23;20179;-85
2022/07/02 02:18:36;;;;;;;4.67;1.87;;;;;;;;;;6225447;23;20207;-86
2022/07/02 02:21:05;;;;;;;2.40;1.43;;;;;;;;;;6225874;23;20196;-86
2022/07/02 02:23:33;;;;;;;4.53;1.67;;;;;;;;;;6225347;23;20208;-86
2022/07/02 02:26:02;;;;;;;1.63;1.23;;;;;;;;;;6225530;23;20262;-86
2022/07/02 02:28:30;;;;;;;1.10;0.83;;;;;;;;;;6123386;23;20175;-86
2022/07/02 02:31:00;;;;;;;3.50;2.33;;;;;;;;;;6251041;22;20300;-86
2022/07/02 02:33:28;;;;;;;2.43;2.10;;;;;;;;;;6278040;22;20175;-86
2022/07/02 02:35:57;;;;;;;5.70;2.30;;;;;;;;;;6277716;22;20176;-86
2022/07/02 02:38:25;;;;;;;4.37;2.20;;;;;;;;;;6251701;22;20251;-86
2022/07/02 02:40:54;;;;;;;4.30;2.23;;;;;;;;;;6250772;22;20196;-86
2022/07/02 02:43:22;;;;;;;0.93;0.93;;;;;;;;;;6251692;22;20183;-86
2022/07/02 02:45:51;;;;;;;3.77;1.83;;;;;;;;;;6250939;22;20183;-86
2022/07/02 02:48:21;;;;;;;3.37;2.00;;;;;;;;;;6251191;22;20183;-86
2022/07/02 02:50:49;;;;;;;1.37;1.27;;;;;;;;;;6251585;22;20226;-86
2022/07/02 02:53:18;;;;;;;3.87;1.70;;;;;;;;;;6251235;22;20182;-86
2022/07/02 02:55:46;;;;;;;5.20;1.87;;;;;;;;;;6251093;22;20192;-86
2022/07/02 02:58:15;;;;;;;4.83;3.37;;;;;;;;;;6250898;22;20176;-86
2022/07/02 03:00:43;;;;;;;2.03;1.83;;;;;;;;;;6250286;22;20204;-86
2022/07/02 03:03:12;;;;;;;1.63;1.50;;;;;;;;;;6250612;22;20230;-87
2022/07/02 03:05:42;;;;;;;2.50;1.90;;;;;;;;;;6250973;22;20176;-86
2022/07/02 03:08:10;;;;;;;2.40;1.37;;;;;;;;;;6250973;22;20243;-86
2022/07/02 03:10:40;;;;;;;4.13;1.70;;;;;;;;;;6251105;22;20177;-86
2022/07/02 03:13:08;;;;;;;4.60;2.23;;;;;;;;;;6278170;22;20180;-86
2022/07/02 03:15:37;;;;;;;5.73;2.30;;;;;;;;;;6251279;22;20177;-86
2022/07/02 03:18:05;;;;;;;4.47;2.20;;;;;;;;;;6277848;22;20172;-85
2022/07/02 03:20:33;;;;;;;3.20;1.40;;;;;;;;;;6250855;22;20239;-85
2022/07/02 03:23:03;;;;;;;4.80;2.00;;;;;;;;;;6250827;22;20187;-86
2022/07/02 03:25:32;;;;;;;3.67;1.80;;;;;;;;;;6251137;22;20263;-86
2022/07/02 03:28:00;;;;;;;3.60;1.83;;;;;;;;;;6251042;22;20183;-87
2022/07/02 03:30:29;;;;;;;3.60;2.00;;;;;;;;;;6251036;22;20215;-86
2022/07/02 03:32:57;;;;;;;2.77;1.70;;;;;;;;;;6250613;22;20607;-86
2022/07/02 03:35:26;;;;;;;3.10;1.50;;;;;;;;;;6277880;22;20183;-85
2022/07/02 03:37:54;;;;;;;2.57;1.50;;;;;;;;;;6250509;22;20176;-85
2022/07/02 03:40:24;;;;;;;0.93;0.93;;;;;;;;;;6250183;22;20176;-85
2022/07/02 03:42:52;;;;;;;3.93;1.97;;;;;;;;;;6277254;22;20200;-86
2022/07/02 03:45:21;;;;;;;4.03;2.00;;;;;;;;;;6250168;22;20177;-86
2022/07/02 03:47:49;;;;;;;2.77;2.33;;;;;;;;;;6250325;22;20199;-86
2022/07/02 03:50:18;;;;;;;6.33;2.00;;;;;;;;;;6250678;22;20243;-86
2022/07/02 03:52:46;;;;;;;4.63;2.20;;;;;;;;;;6250455;22;20172;-86
2022/07/02 03:55:14;;;;;;;4.40;2.00;;;;;;;;;;6250267;22;20179;-86
2022/07/02 03:57:44;;;;;;;3.77;2.20;;;;;;;;;;6250690;22;20176;-86
2022/07/02 04:00:13;;;;;;;6.27;3.10;;;;;;;;;;6250825;22;20258;-84
2022/07/02 04:02:41;;;;;;;6.33;2.20;;;;;;;;;;6277159;22;20191;-85
2022/07/02 04:05:10;;;;;;;3.30;2.10;;;;;;;;;;6250806;22;20201;-85
2022/07/02 04:07:38;;;;;;;2.80;2.13;;;;;;;;;;6250537;22;20180;-85
2022/07/02 04:10:07;;;;;;;3.87;2.07;;;;;;;;;;6277638;22;20176;-85
2022/07/02 04:12:36;;;;;;;2.63;2.33;;;;;;;;;;6250741;22;20183;-85
2022/07/02 04:15:06;;;;;;;2.60;1.80;;;;;;;;;;6277459;22;20173;-86
2022/07/02 04:17:36;;;;;;;2.73;1.87;;;;;;;;;;6250463;22;20203;-86
2022/07/02 04:20:05;;;;;;;2.90;2.10;;;;;;;;;;6250618;22;20190;-86
2022/07/02 04:22:33;;;;;;;6.37;2.70;;;;;;;;;;6250178;22;20206;-86
2022/07/02 04:25:02;;;;;;;5.40;2.60;;;;;;;;;;6277521;22;20266;-86
2022/07/02 04:27:30;;;;;;;3.77;2.70;;;;;;;;;;6250770;22;20180;-87
2022/07/02 04:29:59;;;;;;;3.53;2.67;;;;;;;;;;6250453;22;20198;-86
2022/07/02 04:32:34;;;;;;;2.50;2.30;;;;;;;;;;6250581;22;20179;-86
2022/07/02 04:35:03;;;;;;;2.40;2.20;;;;;;;;;;6277691;22;20181;-86
2022/07/02 04:37:31;;;;;;;2.13;1.97;;;;;;;;;;6250546;22;20176;-86
2022/07/02 04:40:00;;;;;;;5.20;1.70;;;;;;;;;;6250682;22;20183;-87
2022/07/02 04:42:29;;;;;;;3.40;2.10;;;;;;;;;;6275861;22;20203;-87
2022/07/02 04:44:58;;;;;;;3.40;2.13;;;;;;;;;;6250378;22;20184;-86
2022/07/02 04:47:26;;;;;;;5.43;2.20;;;;;;;;;;6250448;22;20180;-87
2022/07/02 04:49:56;;;;;;;7.37;2.97;;;;;;;;;;6250943;22;20184;-87
2022/07/02 04:52:24;;;;;;;5.03;2.80;;;;;;;;;;6250822;22;20178;-87
2022/07/02 04:54:53;;;;;;;5.50;2.50;;;;;;;;;;6279258;22;20172;-87
2022/07/02 04:57:22;;;;;;;2.87;1.40;;;;;;;;;;6278750;22;20168;-86
2022/07/02 04:59:50;;;;;;;4.03;2.20;;;;;;;;;;6279464;22;20172;-86
2022/07/02 05:02:19;;;;;;;3.47;1.97;;;;;;;;;;6279405;22;20192;-86
2022/07/02 05:04:47;;;;;;;4.37;2.57;;;;;;;;;;6279054;22;20188;-86
2022/07/02 05:07:17;;;;;;;4.90;2.13;;;;;;;;;;6278668;22;20169;-86
2022/07/02 05:09:52;;;;;;;4.10;2.47;;;;;;;;;;6252292;22;20184;-87
2022/07/02 05:12:21;;;;;;;5.57;3.57;;;;;;;;;;6252246;22;20235;-87
2022/07/02 05:14:49;;;;;;;8.40;1.73;;;;;;;;;;6251422;22;20181;-87
2022/07/02 05:17:17;;;;;;;3.87;2.20;;;;;;;;;;6252000;22;20177;-86
2022/07/02 05:19:46;;;;;;;4.83;2.10;;;;;;;;;;6252041;22;20260;-86
2022/07/02 05:22:14;;;;;;;5.00;3.13;;;;;;;;;;6251878;22;20199;-86
2022/07/02 05:24:44;;;;;;;6.80;2.60;;;;;;;;;;6278601;22;20243;-87
2022/07/02 05:27:12;;;;;;;4.73;2.60;;;;;;;;;;6252000;22;20176;-87
2022/07/02 05:29:41;;;;;;;4.30;2.50;;;;;;;;;;6278762;22;20173;-86
2022/07/02 05:32:16;;;;;;;3.37;1.60;;;;;;;;;;6251958;22;20202;-87
2022/07/02 05:34:44;;;;;;;2.53;1.77;;;;;;;;;;6252383;22;20181;-86
2022/07/02 05:37:13;;;;;;;3.20;1.40;;;;;;;;;;6251982;22;20183;-87
2022/07/02 05:39:41;;;;;;;5.10;1.47;;;;;;;;;;6251781;22;20177;-87
2022/07/02 05:42:11;;;;;;;3.80;2.13;;;;;;;;;;6278573;22;20180;-87
2022/07/02 05:44:39;;;;;;;1.93;1.60;;;;;;;;;;6278385;22;20178;-87
2022/07/02 05:47:09;;;;;;;5.27;2.10;;;;;;;;;;6252310;22;20221;-86
2022/07/02 05:49:37;;;;;;;3.63;2.07;;;;;;;;;;6251709;22;20193;-86
2022/07/02 05:52:06;;;;;;;4.30;2.77;;;;;;;;;;6252160;22;20177;-86
2022/07/02 05:54:34;;;;;;;7.80;3.30;;;;;;;;;;6252338;22;20208;-87
2022/07/02 05:57:03;;;;;;;0.70;0.70;;;;;;;;;;6251821;22;20177;-87
2022/07/02 05:59:33;;;;;;;3.80;2.10;;;;;;;;;;6251866;22;20255;-86
2022/07/02 06:02:01;;;;;;;4.80;2.60;;;;;;;;;;6251782;22;20173;-87
2022/07/02 06:04:29;;;;;;;3.90;1.80;;;;;;;;;;6278200;22;20268;-86
2022/07/02 06:09:44;;;;;;;2.87;2.00;;;;;;;;;;6251570;22;20183;-87
2022/07/02 06:12:12;;;;;;;2.70;1.30;;;;;;;;;;6251952;22;20166;-87
2022/07/02 06:14:42;;;;;;;8.27;2.50;;;;;;;;;;6252412;22;20173;-87
2022/07/02 06:17:11;;;;;;;1.10;0.97;;;;;;;;;;6252378;22;20236;-84
2022/07/02 06:19:40;;;;;;;7.10;2.00;;;;;;;;;;6251323;22;20192;-87
2022/07/02 06:22:08;;;;;;;1.03;1.03;;;;;;;;;;6251645;22;20185;-85
2022/07/02 06:24:36;;;;;;;4.10;1.43;;;;;;;;;;6278079;22;20173;-87
2022/07/02 06:27:06;;;;;;;1.30;1.17;;;;;;;;;;6251675;22;20172;-87
2022/07/02 06:29:34;;;;;;;0.80;0.80;;;;;;;;;;6251292;22;20591;-87
2022/07/02 06:32:04;;;;;;;5.10;1.87;;;;;;;;;;6251475;22;20237;-87
2022/07/02 06:34:33;;;;;;;0.57;0.57;;;;;;;;;;6251453;22;20206;-87
2022/07/02 06:37:01;;;;;;;3.97;2.30;;;;;;;;;;6251770;22;20175;-85
2022/07/02 06:39:30;;;;;;;1.00;1.00;;;;;;;;;;6251871;22;20177;-84
2022/07/02 06:44:48;;;;;;;4.73;1.60;;;;;;;;;;6251889;22;20177;-85
2022/07/02 06:47:18;;;;;;;7.47;2.23;;;;;;;;;;6250961;22;20175;-85
2022/07/02 06:49:47;;;;;;;5.77;2.60;;;;;;;;;;6278389;22;20178;-86
2022/07/02 06:52:16;;;;;;;4.10;1.10;;;;;;;;;;6251566;22;20234;-86
2022/07/02 06:54:45;;;;;;;1.73;1.03;;;;;;;;;;6278751;22;20253;-86
2022/07/02 06:57:14;;;;;;;2.23;0.97;;;;;;;;;;6251305;22;20209;-85
2022/07/02 06:59:42;;;;;;;7.87;2.07;;;;;;;;;;6251134;22;20178;-86
2022/07/02 07:02:11;;;;;;;1.30;1.20;;;;;;;;;;6251562;22;20172;-86
2022/07/02 07:04:42;;;;;;;3.00;1.07;;;;;;;;;;6250776;22;20194;-84
2022/07/02 07:07:12;;;;;;;0.50;0.50;;;;;;;;;;6250706;22;20173;-86
2022/07/02 07:09:40;;;;;;;5.23;2.20;;;;;;;;;;6277528;22;20179;-86
2022/07/02 07:12:09;;;;;;;3.33;1.30;;;;;;;;;;6251051;22;20177;-86
2022/07/02 07:14:38;;;;;;;2.67;1.50;;;;;;;;;;6251671;22;20264;-86
2022/07/02 07:17:07;;;;;;;6.87;1.40;;;;;;;;;;6251175;22;20181;-86
2022/07/02 07:19:35;;;;;;;2.43;1.40;;;;;;;;;;6251020;22;20182;-86
2022/07/02 07:22:05;;;;;;;2.17;0.93;;;;;;;;;;6251542;22;20173;-86
2022/07/02 07:24:34;;;;;;;3.80;1.33;;;;;;;;;;6250904;22;20243;-86
2022/07/02 07:27:06;;;;;;;0.40;0.40;;;;;;;;;;6251276;22;20173;-86
2022/07/02 07:29:35;;;;;;;0.97;0.87;;;;;;;;;;6278829;22;20182;-84
2022/07/02 07:32:06;;;;;;;6.03;1.80;;;;;;;;;;6250847;22;20210;-85
2022/07/02 07:34:41;;;;;;;2.43;1.40;;;;;;;;;;6251430;22;20174;-86
2022/07/02 07:37:12;;;;;;;2.30;1.73;;;;;;;;;;6278514;22;20223;-84
2022/07/02 07:39:41;;;;;;;8.93;2.33;;;;;;;;;;6278197;22;20169;-85
2022/07/02 07:42:09;;;;;;;4.43;1.37;;;;;;;;;;6251113;22;20177;-87
2022/07/02 07:44:38;;;;;;;0.90;0.80;;;;;;;;;;6251648;22;20272;-86
2022/07/02 07:47:07;;;;;;;1.80;1.07;;;;;;;;;;6251348;22;20218;-86
2022/07/02 07:49:35;;;;;;;0.50;0.50;;;;;;;;;;6251463;22;20205;-86
2022/07/02 07:52:04;;;;;;;3.87;1.70;;;;;;;;;;6250988;22;20212;-86
2022/07/02 07:54:34;;;;;;;2.80;0.90;;;;;;;;;;6251028;22;20260;-86
2022/07/02 07:57:02;;;;;;;1.63;0.90;;;;;;;;;;6251228;22;20177;-86
2022/07/02 07:59:31;;;;;;;5.53;2.00;;;;;;;;;;6277880;22;20175;-86
2022/07/02 08:02:00;;;;;;;1.40;1.07;;;;;;;;;;6250835;22;20257;-86
2022/07/02 08:04:29;;;;;;;2.37;1.67;;;;;;;;;;6250983;22;20205;-86
2022/07/02 08:06:57;;;;;;;4.30;0.93;;;;;;;;;;6250837;22;20173;-86
2022/07/02 08:09:26;;;;;;;1.10;1.00;;;;;;;;;;6251577;22;20221;-86
2022/07/02 08:11:56;;;;;;;5.63;1.03;;;;;;;;;;6251527;22;20274;-86
2022/07/02 08:14:24;;;;;;;0.60;0.60;;;;;;;;;;6251606;22;20176;-86
2022/07/02 08:16:53;;;;;;;0.50;0.50;;;;;;;;;;6251217;22;20181;-86
2022/07/02 08:19:21;;;;;;;2.57;1.20;;;;;;;;;;6250852;22;20196;-86
2022/07/02 08:21:49;;;;;;;0.70;0.70;;;;;;;;;;6251458;22;20184;-86
2022/07/02 08:24:18;;;;;;;3.07;1.10;;;;;;;;;;6250892;22;20279;-86
2022/07/02 08:26:46;;;;;;;0.50;0.50;;;;;;;;;;6251027;22;20179;-86
2022/07/02 08:29:16;;;;;;;1.33;0.70;;;;;;;;;;6252709;22;20175;-86
2022/07/02 08:31:45;;;;;;;0.40;0.40;;;;;;;;;;6279873;22;20202;-86
2022/07/02 08:34:13;;;;;;;1.83;0.60;;;;;;;;;;6253027;22;20190;-87
2022/07/02 08:36:42;;;;;;;0.67;0.50;;;;;;;;;;6252804;22;20180;-86
2022/07/02 08:39:10;;;;;;;1.97;0.53;;;;;;;;;;6252916;22;20267;-86
2022/07/02 08:41:40;;;;;;;0.83;0.57;;;;;;;;;;6252400;22;20260;-86
2022/07/02 08:44:09;;;;;;;0.60;0.60;;;;;;;;;;6251987;22;20217;-86
2022/07/02 08:46:40;;;;;;;0.37;0.37;;;;;;;;;;6252787;22;20177;-86
2022/07/02 08:49:09;;;;;;;2.10;0.63;;;;;;;;;;6279542;22;20515;-86
2022/07/02 08:51:38;;;;;;;0.70;0.70;;;;;;;;;;6253175;22;20184;-86
2022/07/02 08:54:07;;;;;;;0.50;0.50;;;;;;;;;;6252585;22;20175;-86
2022/07/02 08:56:35;;;;;;;0.70;0.70;;;;;;;;;;6252964;22;20179;-86
2022/07/02 08:59:04;;;;;;;2.37;0.87;;;;;;;;;;6253008;22;20174;-86
2022/07/02 09:01:33;;;;;;;0.47;0.47;;;;;;;;;;6253283;22;20187;-86
2022/07/02 09:04:03;;;;;;;0.43;0.40;;;;;;;;;;6279479;22;20194;-86
2022/07/02 09:06:35;;;;;;;2.57;0.90;;;;;;;;;;6252640;22;20180;-86
2022/07/02 09:09:03;;;;;;;0.63;0.60;;;;;;;;;;6252752;22;20278;-86
2022/07/02 09:11:32;;;;;;;0.50;0.50;;;;;;;;;;6252656;22;20199;-86
2022/07/02 09:14:01;;;;;;;0.60;0.50;;;;;;;;;;6252691;22;20197;-86
2022/07/02 09:16:30;;;;;;;2.37;0.97;;;;;;;;;;6253013;22;20183;-86
2022/07/02 09:18:59;;;;;;;0.80;0.60;;;;;;;;;;6252623;22;20177;-86
2022/07/02 09:21:28;;;;;;;0.40;0.40;;;;;;;;;;6252590;22;20174;-86
2022/07/02 09:23:57;;;;;;;0.30;0.30;;;;;;;;;;6252676;22;20189;-86
2022/07/02 09:26:26;;;;;;;0.40;0.40;;;;;;;;;;6252573;22;20182;-86
2022/07/02 09:28:55;;;;;;;0.30;0.30;;;;;;;;;;6251964;22;20211;-87
2022/07/02 09:31:24;;;;;;;2.53;0.80;;;;;;;;;;6279545;22;20198;-86
2022/07/02 09:33:53;;;;;;;2.20;0.70;;;;;;;;;;6252351;22;20172;-87
2022/07/02 09:36:22;;;;;;;0.63;0.63;;;;;;;;;;6252732;22;20176;-86
2022/07/02 09:38:52;;;;;;;0.40;0.40;;;;;;;;;;6252462;22;20179;-86
2022/07/02 09:41:22;;;;;;;0.43;0.43;;;;;;;;;;6252180;22;20180;-87
2022/07/02 09:43:53;;;;;;;0.30;0.30;;;;;;;;;;6253075;22;20213;-87
2022/07/02 09:46:22;;;;;;;0.30;0.30;;;;;;;;;;6252189;22;20185;-87
2022/07/02 09:48:51;;;;;;;1.33;0.50;;;;;;;;;;6252693;22;20175;-87
2022/07/02 09:51:19;;;;;;;0.70;0.63;;;;;;;;;;6252731;22;20255;-87
2022/07/02 09:53:49;;;;;;;0.30;0.30;;;;;;;;;;6252792;22;20192;-86
2022/07/02 09:56:19;;;;;;;0.37;0.37;;;;;;;;;;6252730;22;20201;-86
2022/07/02 09:58:47;;;;;;;0.77;0.70;;;;;;;;;;6252257;22;20226;-86
2022/07/02 10:01:19;;;;;;;0.37;0.37;;;;;;;;;;6252676;22;20175;-86
2022/07/02 10:03:48;;;;;;;0.80;0.80;;;;;;;;;;6252201;22;20207;-86
2022/07/02 10:06:17;;;;;;;0.80;0.80;;;;;;;;;;6252478;22;20196;-86
2022/07/02 10:08:53;;;;;;;1.40;0.63;;;;;;;;;;6251735;22;20204;-86
2022/07/02 10:11:24;;;;;;;0.50;0.50;;;;;;;;;;6251829;22;20174;-86
2022/07/02 10:13:56;;;;;;;0.87;0.77;;;;;;;;;;6252441;22;20180;-87
2022/07/02 10:16:26;;;;;;;0.57;0.50;;;;;;;;;;6251951;22;20567;-86
2022/07/02 10:18:55;;;;;;;0.77;0.47;;;;;;;;;;6251941;22;20190;-86
2022/07/02 10:21:24;;;;;;;0.87;0.67;;;;;;;;;;6252264;22;20262;-86
2022/07/02 10:23:53;;;;;;;2.00;0.83;;;;;;;;;;6251981;22;20178;-86
2022/07/02 10:26:22;;;;;;;2.10;0.90;;;;;;;;;;6252503;22;20270;-86
2022/07/02 10:28:52;;;;;;;4.17;1.37;;;;;;;;;;6251820;22;20175;-87
2022/07/02 10:31:21;;;;;;;0.30;0.30;;;;;;;;;;6278726;22;20202;-86
2022/07/02 10:33:53;;;;;;;3.10;1.03;;;;;;;;;;6251497;22;20171;-86
2022/07/02 10:36:22;;;;;;;0.40;0.40;;;;;;;;;;6251752;22;20177;-86
2022/07/02 10:38:58;;;;;;;1.00;0.53;;;;;;;;;;6279118;22;20197;-87
2022/07/02 10:41:27;;;;;;;0.60;0.60;;;;;;;;;;6279311;22;20197;-87
2022/07/02 10:43:57;;;;;;;0.30;0.30;;;;;;;;;;6252234;22;20204;-87
2022/07/02 10:46:27;;;;;;;0.40;0.40;;;;;;;;;;6279060;22;20187;-87
2022/07/02 10:48:56;;;;;;;0.43;0.43;;;;;;;;;;6252295;22;20176;-86
2022/07/02 10:51:25;;;;;;;0.43;0.40;;;;;;;;;;6252164;22;20206;-87
2022/07/02 10:53:54;;;;;;;0.30;0.30;;;;;;;;;;6251546;22;20234;-87
2022/07/02 10:56:23;;;;;;;3.07;0.90;;;;;;;;;;6252037;22;20171;-87
2022/07/02 10:58:52;;;;;;;2.47;0.90;;;;;;;;;;6251728;22;20175;-87
2022/07/02 11:01:23;;;;;;;0.40;0.40;;;;;;;;;;6251977;22;20176;-86
2022/07/02 11:03:52;;;;;;;3.40;0.77;;;;;;;;;;6251624;22;20204;-86
2022/07/02 11:06:22;;;;;;;0.23;0.23;;;;;;;;;;6251033;22;20199;-87
2022/07/02 11:08:51;;;;;;;0.87;0.60;;;;;;;;;;6251126;22;20205;-85
2022/07/02 11:11:22;;;;;;;0.60;0.60;;;;;;;;;;6277003;22;20181;-85
2022/07/02 11:13:52;;;;;;;2.87;0.93;;;;;;;;;;6252047;22;20174;-85
2022/07/02 11:16:23;;;;;;;0.40;0.40;;;;;;;;;;6251846;22;20174;-86
2022/07/02 11:18:52;;;;;;;0.43;0.43;;;;;;;;;;6251925;22;20237;-86
2022/07/02 11:21:21;;;;;;;0.67;0.67;;;;;;;;;;6251525;22;20329;-86
2022/07/02 11:23:50;;;;;;;0.60;0.60;;;;;;;;;;6251912;22;20186;-87
2022/07/02 11:26:20;;;;;;;2.23;1.30;;;;;;;;;;6251181;22;20196;-87
2022/07/02 11:28:49;;;;;;;0.90;0.50;;;;;;;;;;6251750;22;20177;-87
2022/07/02 11:31:18;;;;;;;0.40;0.40;;;;;;;;;;6251611;22;20215;-87
2022/07/02 11:33:49;;;;;;;2.17;0.67;;;;;;;;;;6277334;22;20189;-87
2022/07/02 11:36:22;;;;;;;1.37;0.80;;;;;;;;;;6251804;22;20175;-87
2022/07/02 11:38:51;;;;;;;1.77;0.80;;;;;;;;;;6251374;22;20174;-87
2022/07/02 11:41:20;;;;;;;1.20;0.90;;;;;;;;;;6251495;22;20201;-87
2022/07/02 11:43:49;;;;;;;1.00;0.80;;;;;;;;;;6251571;22;20238;-87
2022/07/02 11:46:19;;;;;;;0.43;0.43;;;;;;;;;;6251046;22;20217;-87
2022/07/02 11:48:50;;;;;;;0.97;0.90;;;;;;;;;;6278400;22;20170;-87
2022/07/02 11:51:20;;;;;;;0.40;0.40;;;;;;;;;;6251198;22;20178;-87
2022/07/02 11:53:58;;;;;;;0.50;0.50;;;;;;;;;;6251492;22;20177;-87
2022/07/02 11:56:27;;;;;;;0.47;0.47;;;;;;;;;;6251348;22;20198;-87
2022/07/02 11:58:56;;;;;;;1.27;0.50;;;;;;;;;;6251074;22;20200;-87
2022/07/02 12:01:26;;;;;;;0.30;0.30;;;;;;;;;;6251423;22;20184;-87
2022/07/02 12:03:56;;;;;;;1.63;1.07;;;;;;;;;;6250671;22;20198;-87
2022/07/02 12:06:25;;;;;;;0.90;0.90;;;;;;;;;;6251255;22;20205;-87
2022/07/02 12:08:55;;;;;;;0.40;0.40;;;;;;;;;;6251367;22;20210;-88
2022/07/02 12:11:24;;;;;;;0.50;0.50;;;;;;;;;;6251056;22;20253;-86
2022/07/02 12:13:54;;;;;;;0.70;0.70;;;;;;;;;;6251768;22;20175;-85
2022/07/02 12:16:23;;;;;;;1.07;0.70;;;;;;;;;;6251498;22;20172;-86
2022/07/02 12:19:00;;;;;;;1.03;0.90;;;;;;;;;;6251289;22;20214;-86
2022/07/02 12:21:36;;;;;;;0.93;0.90;;;;;;;;;;6250674;22;20171;-86
2022/07/02 12:24:05;;;;;;;0.43;0.43;;;;;;;;;;6251404;22;20179;-86
2022/07/02 12:26:34;;;;;;;0.30;0.30;;;;;;;;;;6251085;22;20234;-86
2022/07/02 12:31:50;;;;;;;0.63;0.63;;;;;;;;;;6276889;22;20235;-87
2022/07/02 12:34:21;;;;;;;1.60;1.50;;;;;;;;;;6277495;22;20181;-86
2022/07/02 12:36:52;;;;;;;0.53;0.30;;;;;;;;;;6250709;22;20259;-86
2022/07/02 12:39:22;;;;;;;1.27;0.70;;;;;;;;;;6250953;22;20176;-86
2022/07/02 12:41:50;;;;;;;1.20;0.60;;;;;;;;;;6250946;22;20210;-86
2022/07/02 12:44:20;;;;;;;0.30;0.30;;;;;;;;;;6251104;22;20190;-86
2022/07/02 12:46:49;;;;;;;1.37;0.80;;;;;;;;;;6250774;22;20212;-85
2022/07/02 12:49:18;;;;;;;1.03;0.87;;;;;;;;;;6251103;22;20199;-85
2022/07/02 12:52:02;;;;;;;0.63;0.53;;;;;;;;;;6277704;22;20195;-86
2022/07/02 12:54:34;;;;;;;0.47;0.47;;;;;;;;;;6251166;22;20183;-86
2022/07/02 12:57:13;;;;;;;3.50;0.87;;;;;;;;;;6250564;22;20203;-86
2022/07/02 12:59:42;;;;;;;0.40;0.40;;;;;;;;;;6250699;22;20176;-86
2022/07/02 13:02:15;;;;;;;0.63;0.63;;;;;;;;;;6250844;22;20176;-86
2022/07/02 13:04:44;;;;;;;0.43;0.43;;;;;;;;;;6250851;22;20193;-87
2022/07/02 13:07:15;;;;;;;0.30;0.30;;;;;;;;;;6250719;22;20231;-87
2022/07/02 13:09:44;;;;;;;0.40;0.40;;;;;;;;;;6250316;22;20180;-87
2022/07/02 13:12:15;;;;;;;0.63;0.40;;;;;;;;;;6250303;22;20180;-87
2022/07/02 13:14:45;;;;;;;2.53;1.27;;;;;;;;;;6250684;22;20225;-87
2022/07/02 13:17:14;;;;;;;2.07;0.90;;;;;;;;;;6252285;22;20255;-87
2022/07/02 13:20:03;;;;;;;0.90;0.90;;;;;;;;;;6253265;22;20173;-87
2022/07/02 13:22:33;;;;;;;2.93;1.90;;;;;;;;;;6252844;22;20217;-86
2022/07/02 13:25:02;;;;;;;0.47;0.47;;;;;;;;;;6252697;22;20257;-86
2022/07/02 13:27:30;;;;;;;1.47;1.30;;;;;;;;;;6252112;22;20197;-85
2022/07/02 13:30:00;;;;;;;0.90;0.90;;;;;;;;;;6251885;22;20174;-87
2022/07/02 13:32:28;;;;;;;1.17;1.07;;;;;;;;;;6226236;23;20214;-87
2022/07/02 13:34:57;;;;;;;2.93;0.90;;;;;;;;;;6227009;23;20182;-87
2022/07/02 13:37:25;;;;;;;4.07;1.03;;;;;;;;;;6227105;23;20185;-87
2022/07/02 13:39:55;;;;;;;0.70;0.70;;;;;;;;;;6226972;23;20205;-87
2022/07/02 13:42:24;;;;;;;2.23;0.70;;;;;;;;;;6252022;22;20177;-87
2022/07/02 13:44:53;;;;;;;0.70;0.70;;;;;;;;;;6226685;23;20180;-87
2022/07/02 13:47:22;;;;;;;0.90;0.87;;;;;;;;;;6226530;23;20193;-87
2022/07/02 13:49:50;;;;;;;1.60;1.13;;;;;;;;;;6226664;23;20204;-87
2022/07/02 13:52:19;;;;;;;0.67;0.63;;;;;;;;;;6226754;23;20204;-87
2022/07/02 13:54:48;;;;;;;0.70;0.70;;;;;;;;;;6227301;23;20187;-87
2022/07/02 13:57:18;;;;;;;0.80;0.80;;;;;;;;;;6226562;23;20176;-87
2022/07/02 13:59:47;;;;;;;0.77;0.77;;;;;;;;;;6226673;23;20177;-87
2022/07/02 14:02:16;;;;;;;3.60;1.13;;;;;;;;;;6226624;22;20234;-87
2022/07/02 14:04:44;;;;;;;1.33;0.97;;;;;;;;;;6226241;23;20200;-87
2022/07/02 14:07:13;;;;;;;1.13;0.70;;;;;;;;;;6225823;23;20305;-87
2022/07/02 14:09:42;;;;;;;0.60;0.60;;;;;;;;;;6251638;22;20208;-87
2022/07/02 14:12:11;;;;;;;2.23;0.83;;;;;;;;;;6226963;23;20181;-87
2022/07/02 14:14:40;;;;;;;1.17;0.90;;;;;;;;;;6226485;23;20173;-86
2022/07/02 14:17:10;;;;;;;1.90;0.87;;;;;;;;;;6226463;23;20173;-86
2022/07/02 14:19:38;;;;;;;2.20;1.10;;;;;;;;;;6226188;23;20237;-86
2022/07/02 14:22:07;;;;;;;1.33;1.23;;;;;;;;;;6123906;23;20224;-86
2022/07/02 14:24:35;;;;;;;1.90;0.90;;;;;;;;;;6226299;23;20177;-86
2022/07/02 14:27:04;;;;;;;5.30;0.60;;;;;;;;;;6226394;23;20259;-87
2022/07/02 14:29:33;;;;;;;2.10;0.97;;;;;;;;;;6226028;23;20180;-86
2022/07/02 14:32:03;;;;;;;1.03;0.80;;;;;;;;;;6251816;22;20268;-87
2022/07/02 14:34:32;;;;;;;1.50;1.40;;;;;;;;;;6251938;22;20212;-86
2022/07/02 14:37:00;;;;;;;1.17;1.07;;;;;;;;;;6252007;22;20200;-87
2022/07/02 14:39:30;;;;;;;0.70;0.60;;;;;;;;;;6251988;22;20248;-87
2022/07/02 14:41:59;;;;;;;0.83;0.57;;;;;;;;;;6251463;22;20187;-86
2022/07/02 14:44:27;;;;;;;0.40;0.40;;;;;;;;;;6251874;22;20174;-87
2022/07/02 14:46:56;;;;;;;1.80;0.97;;;;;;;;;;6251994;22;20274;-87
2022/07/02 14:49:26;;;;;;;10.30;0.97;;;;;;;;;;6278524;22;20176;-87
2022/07/02 14:51:55;;;;;;;0.83;0.83;;;;;;;;;;6251754;22;20174;-86
2022/07/02 14:54:23;;;;;;;5.20;0.73;;;;;;;;;;6252241;22;20238;-86
2022/07/02 14:56:52;;;;;;;2.33;1.37;;;;;;;;;;6251730;22;20172;-86
2022/07/02 14:59:20;;;;;;;0.80;0.80;;;;;;;;;;6251647;22;20178;-87
2022/07/02 15:01:49;;;;;;;2.60;1.37;;;;;;;;;;6250890;22;20275;-87
2022/07/02 15:04:17;;;;;;;0.57;0.57;;;;;;;;;;6251624;22;20284;-87
2022/07/02 15:06:47;;;;;;;0.97;0.77;;;;;;;;;;6251770;22;20212;-87
2022/07/02 15:09:16;;;;;;;1.00;0.97;;;;;;;;;;6252223;22;20195;-87